Time;durP1;ratioP1;P1;durP2;ratioP2;P2;SDS_P1;SDS_P2;PMS_P1;PMS_P2;Temp;Humidity;BMP_temperature;BMP_pressure;BME280_temperature;BME280_humidity;BME280_pressure;Samples;Min_cycle;Max_cycle;Signal;HPM_P1;HPM_P2
2021/01/26 00:00:09;;;;;;;31.45;18.65;;;;;;;;;;5093616;28;20185;-53
2021/01/26 00:02:35;;;;;;;34.30;19.50;;;;;;;;;;5093584;28;20162;-53
2021/01/26 00:05:01;;;;;;;28.23;18.70;;;;;;;;;;5093450;28;20257;-53
2021/01/26 00:07:27;;;;;;;30.77;19.45;;;;;;;;;;5093339;28;20173;-53
2021/01/26 00:09:53;;;;;;;32.17;19.87;;;;;;;;;;5093393;28;20186;-50
2021/01/26 00:12:19;;;;;;;32.40;17.98;;;;;;;;;;5093659;28;20985;-49
2021/01/26 00:14:45;;;;;;;31.23;19.70;;;;;;;;;;5088718;28;20178;-50
2021/01/26 00:17:11;;;;;;;37.42;20.88;;;;;;;;;;5093472;28;20776;-50
2021/01/26 00:19:37;;;;;;;38.13;19.93;;;;;;;;;;5093751;28;20199;-50
2021/01/26 00:22:03;;;;;;;37.63;20.97;;;;;;;;;;5090149;28;20824;-50
2021/01/26 00:24:29;;;;;;;45.00;20.57;;;;;;;;;;5073101;28;20401;-50
2021/01/26 00:26:55;;;;;;;35.30;20.30;;;;;;;;;;5072676;28;20401;-50
2021/01/26 00:29:21;;;;;;;36.87;21.43;;;;;;;;;;5073025;28;20624;-50
2021/01/26 00:31:47;;;;;;;39.30;20.90;;;;;;;;;;5072648;28;20412;-49
2021/01/26 00:34:13;;;;;;;39.13;20.53;;;;;;;;;;5072916;28;20626;-50
2021/01/26 00:36:39;;;;;;;38.43;21.27;;;;;;;;;;5072416;28;20476;-49
2021/01/26 00:39:05;;;;;;;35.70;20.60;;;;;;;;;;5072750;28;20432;-50
2021/01/26 00:41:31;;;;;;;36.03;20.45;;;;;;;;;;5072736;28;20888;-50
2021/01/26 00:43:57;;;;;;;32.50;19.23;;;;;;;;;;5073641;28;20184;-49
2021/01/26 00:46:23;;;;;;;34.10;19.53;;;;;;;;;;5078953;28;20161;-49
2021/01/26 00:48:49;;;;;;;34.55;19.40;;;;;;;;;;5092702;28;20542;-49
2021/01/26 00:51:15;;;;;;;34.67;19.03;;;;;;;;;;5092709;28;20649;-50
2021/01/26 00:53:41;;;;;;;34.95;18.45;;;;;;;;;;5092541;28;20403;-50
2021/01/26 00:56:07;;;;;;;30.13;20.70;;;;;;;;;;5092374;28;20252;-50
2021/01/26 00:58:33;;;;;;;35.73;21.47;;;;;;;;;;5092422;28;20601;-50
2021/01/26 01:00:59;;;;;;;34.10;20.17;;;;;;;;;;5092526;28;20906;-51
2021/01/26 01:03:25;;;;;;;34.63;20.23;;;;;;;;;;5092470;28;20414;-52
2021/01/26 01:05:51;;;;;;;38.57;20.37;;;;;;;;;;5092381;28;20403;-53
2021/01/26 01:08:17;;;;;;;31.80;18.95;;;;;;;;;;5092194;28;20435;-53
2021/01/26 01:10:43;;;;;;;38.87;19.57;;;;;;;;;;5092696;28;20206;-54
2021/01/26 01:13:10;;;;;;;33.67;20.97;;;;;;;;;;5092345;28;20395;-53
2021/01/26 01:15:37;;;;;;;37.10;22.00;;;;;;;;;;5080879;28;20936;-50
2021/01/26 01:18:03;;;;;;;34.55;20.80;;;;;;;;;;5071999;28;20565;-50
2021/01/26 01:20:29;;;;;;;35.80;19.38;;;;;;;;;;5072445;28;20246;-53
2021/01/26 01:22:55;;;;;;;30.90;18.58;;;;;;;;;;5071881;28;20158;-52
2021/01/26 01:25:22;;;;;;;41.27;19.90;;;;;;;;;;5071397;28;20166;-53
2021/01/26 01:27:48;;;;;;;28.02;19.67;;;;;;;;;;5071773;28;20488;-52
2021/01/26 01:30:15;;;;;;;29.07;20.00;;;;;;;;;;5072016;28;20236;-53
2021/01/26 01:32:41;;;;;;;31.25;19.55;;;;;;;;;;5072003;28;20466;-51
2021/01/26 01:35:08;;;;;;;33.27;20.23;;;;;;;;;;5071531;28;20213;-50
2021/01/26 01:37:34;;;;;;;32.45;21.80;;;;;;;;;;5071248;28;20480;-52
2021/01/26 01:40:00;;;;;;;39.08;23.00;;;;;;;;;;5071362;28;20264;-51
2021/01/26 01:42:26;;;;;;;34.80;18.57;;;;;;;;;;5071549;28;20241;-51
2021/01/26 01:44:52;;;;;;;36.03;21.20;;;;;;;;;;5070788;28;20781;-54
2021/01/26 01:47:21;;;;;;;36.27;20.97;;;;;;;;;;5071376;28;20436;-53
2021/01/26 01:49:48;;;;;;;35.85;21.50;;;;;;;;;;5071386;28;20428;-51
2021/01/26 01:52:16;;;;;;;39.13;21.17;;;;;;;;;;5071510;28;20565;-53
2021/01/26 01:54:44;;;;;;;38.70;21.00;;;;;;;;;;5071338;28;20525;-51
2021/01/26 01:57:21;;;;;;;37.00;22.17;;;;;;;;;;5070279;28;20647;-51
2021/01/26 01:59:50;;;;;;;38.22;20.58;;;;;;;;;;5071255;28;20199;-50
2021/01/26 02:02:16;;;;;;;31.25;21.92;;;;;;;;;;5070405;28;20242;-52
2021/01/26 02:04:43;;;;;;;40.58;23.85;;;;;;;;;;5070692;28;20154;-52
2021/01/26 02:07:09;;;;;;;50.28;22.10;;;;;;;;;;5070505;28;20171;-50
2021/01/26 02:09:36;;;;;;;37.10;23.63;;;;;;;;;;5070895;28;20195;-51
2021/01/26 02:12:03;;;;;;;38.47;22.95;;;;;;;;;;5070842;28;20164;-52
2021/01/26 02:14:30;;;;;;;37.55;22.58;;;;;;;;;;5073867;28;20177;-51
2021/01/26 02:17:01;;;;;;;33.63;20.98;;;;;;;;;;5090913;28;20687;-52
2021/01/26 02:19:45;;;;;;;33.58;20.83;;;;;;;;;;5091038;28;20766;-50
2021/01/26 02:22:31;;;;;;;37.20;21.20;;;;;;;;;;5091099;28;20165;-50
2021/01/26 02:25:06;;;;;;;40.42;21.35;;;;;;;;;;5091090;28;20169;-50
2021/01/26 02:27:50;;;;;;;38.10;21.60;;;;;;;;;;5090802;28;20169;-50
2021/01/26 02:30:16;;;;;;;30.95;20.77;;;;;;;;;;5091039;28;20220;-50
2021/01/26 02:33:00;;;;;;;34.43;21.37;;;;;;;;;;5090944;28;20196;-51
2021/01/26 02:35:32;;;;;;;39.63;21.92;;;;;;;;;;5090703;28;20894;-51
2021/01/26 02:38:17;;;;;;;28.98;20.70;;;;;;;;;;5090913;28;20203;-50
2021/01/26 02:40:49;;;;;;;31.98;20.23;;;;;;;;;;5090820;28;20162;-52
2021/01/26 02:43:23;;;;;;;40.42;21.10;;;;;;;;;;5090845;28;20191;-53
2021/01/26 02:46:07;;;;;;;35.67;21.48;;;;;;;;;;5078283;28;20173;-53
2021/01/26 02:48:36;;;;;;;34.90;22.15;;;;;;;;;;5070527;28;20256;-53
2021/01/26 02:51:04;;;;;;;36.63;22.95;;;;;;;;;;5070574;28;20604;-51
2021/01/26 02:53:36;;;;;;;39.80;23.27;;;;;;;;;;5070590;28;20192;-50
2021/01/26 02:56:08;;;;;;;36.83;22.75;;;;;;;;;;5070292;28;20643;-51
2021/01/26 02:58:37;;;;;;;42.40;21.95;;;;;;;;;;5070676;28;20203;-53
2021/01/26 03:01:05;;;;;;;33.78;20.95;;;;;;;;;;5070595;28;20565;-50
2021/01/26 03:03:31;;;;;;;37.55;25.05;;;;;;;;;;5071086;28;20162;-50
2021/01/26 03:06:17;;;;;;;39.10;21.50;;;;;;;;;;5070362;28;20167;-51
2021/01/26 03:08:55;;;;;;;43.13;21.75;;;;;;;;;;5071080;28;20451;-51
2021/01/26 03:11:28;;;;;;;35.08;20.95;;;;;;;;;;5074493;28;20215;-50
2021/01/26 03:13:58;;;;;;;28.00;19.35;;;;;;;;;;5074230;28;20170;-54
2021/01/26 03:16:25;;;;;;;34.05;17.83;;;;;;;;;;5074419;28;20224;-50
2021/01/26 03:18:59;;;;;;;32.30;18.20;;;;;;;;;;5074225;28;20205;-50
2021/01/26 03:21:26;;;;;;;30.60;18.95;;;;;;;;;;5074313;28;20174;-51
2021/01/26 03:24:21;;;;;;;35.03;19.40;;;;;;;;;;5074343;28;20167;-50
2021/01/26 03:26:47;;;;;;;23.75;16.08;;;;;;;;;;5061076;28;20179;-52
2021/01/26 03:29:15;;;;;;;30.58;17.33;;;;;;;;;;5074169;28;20179;-52
2021/01/26 03:31:46;;;;;;;34.88;19.08;;;;;;;;;;5074113;28;20166;-51
2021/01/26 03:34:12;;;;;;;26.13;15.68;;;;;;;;;;5073931;28;20447;-53
2021/01/26 03:36:38;;;;;;;29.20;17.80;;;;;;;;;;5073669;28;20170;-53
2021/01/26 03:39:05;;;;;;;35.35;16.95;;;;;;;;;;5073554;28;20971;-52
2021/01/26 03:41:31;;;;;;;25.75;15.57;;;;;;;;;;5073774;28;20170;-50
2021/01/26 03:43:57;;;;;;;28.90;14.45;;;;;;;;;;5073666;28;20743;-50
2021/01/26 03:46:26;;;;;;;31.73;15.27;;;;;;;;;;5073251;28;20265;-51
2021/01/26 03:49:04;;;;;;;24.73;13.90;;;;;;;;;;5073529;28;20285;-50
2021/01/26 03:51:33;;;;;;;29.80;15.02;;;;;;;;;;5073805;28;20172;-51
2021/01/26 03:54:28;;;;;;;23.20;12.35;;;;;;;;;;5073402;28;20198;-51
2021/01/26 03:57:00;;;;;;;27.00;15.32;;;;;;;;;;5018704;28;20239;-50
2021/01/26 03:59:32;;;;;;;23.02;13.95;;;;;;;;;;5073437;28;20186;-51
2021/01/26 04:02:14;;;;;;;28.45;15.02;;;;;;;;;;5073511;28;20178;-51
2021/01/26 04:04:51;;;;;;;26.75;13.25;;;;;;;;;;5073536;28;20174;-53
2021/01/26 04:07:37;;;;;;;19.15;10.38;;;;;;;;;;5073093;28;20171;-51
2021/01/26 04:10:07;;;;;;;24.73;12.20;;;;;;;;;;5062706;28;20287;-51
2021/01/26 04:12:36;;;;;;;15.90;11.05;;;;;;;;;;5073317;28;20212;-52
2021/01/26 04:15:20;;;;;;;18.33;10.55;;;;;;;;;;5072797;28;20257;-50
2021/01/26 04:17:50;;;;;;;21.48;10.95;;;;;;;;;;5073107;28;20194;-51
2021/01/26 04:20:21;;;;;;;17.98;11.18;;;;;;;;;;5072540;28;20213;-51
2021/01/26 04:22:57;;;;;;;22.20;11.65;;;;;;;;;;5073098;28;20185;-51
2021/01/26 04:25:23;;;;;;;27.98;11.00;;;;;;;;;;5072755;28;20697;-51
2021/01/26 04:27:49;;;;;;;18.20;12.40;;;;;;;;;;5072947;28;20246;-51
2021/01/26 04:30:15;;;;;;;27.70;12.13;;;;;;;;;;5072948;28;20327;-52
2021/01/26 04:32:42;;;;;;;20.10;12.95;;;;;;;;;;5072763;28;20616;-51
2021/01/26 04:35:08;;;;;;;27.33;12.15;;;;;;;;;;5072843;28;20244;-55
2021/01/26 04:37:34;;;;;;;19.10;11.25;;;;;;;;;;5072241;28;20195;-51
2021/01/26 04:40:02;;;;;;;19.90;10.47;;;;;;;;;;5072706;28;20193;-50
2021/01/26 04:42:31;;;;;;;24.05;10.98;;;;;;;;;;5072753;28;20402;-51
2021/01/26 04:45:07;;;;;;;23.10;10.00;;;;;;;;;;5072476;28;20193;-50
2021/01/26 04:47:36;;;;;;;17.13;9.95;;;;;;;;;;5072122;28;20187;-50
2021/01/26 04:50:22;;;;;;;13.27;8.68;;;;;;;;;;5072503;28;20178;-53
2021/01/26 04:52:48;;;;;;;18.48;9.13;;;;;;;;;;5072418;28;20170;-52
2021/01/26 04:55:23;;;;;;;13.07;9.40;;;;;;;;;;5072310;28;20181;-53
2021/01/26 04:57:58;;;;;;;19.15;9.43;;;;;;;;;;5072249;28;20988;-50
2021/01/26 05:00:38;;;;;;;18.42;9.32;;;;;;;;;;5072357;28;20409;-50
2021/01/26 05:03:09;;;;;;;17.88;10.43;;;;;;;;;;5072278;28;20163;-50
2021/01/26 05:05:37;;;;;;;19.08;9.00;;;;;;;;;;5072445;28;20612;-51
2021/01/26 05:08:06;;;;;;;13.23;9.82;;;;;;;;;;5072061;28;20174;-52
2021/01/26 05:10:48;;;;;;;14.13;9.32;;;;;;;;;;5072422;28;20219;-50
2021/01/26 05:13:25;;;;;;;16.67;9.50;;;;;;;;;;5072065;28;20643;-51
2021/01/26 05:15:58;;;;;;;28.30;11.30;;;;;;;;;;5072240;28;20216;-51
2021/01/26 05:18:27;;;;;;;20.75;9.98;;;;;;;;;;5072007;28;20197;-50
2021/01/26 05:20:55;;;;;;;22.25;9.65;;;;;;;;;;5072351;28;20174;-52
2021/01/26 05:23:25;;;;;;;20.90;10.60;;;;;;;;;;5072052;28;20188;-52
2021/01/26 05:25:51;;;;;;;18.80;9.63;;;;;;;;;;5071871;28;20177;-52
2021/01/26 05:28:18;;;;;;;13.23;8.43;;;;;;;;;;5071845;28;20232;-53
2021/01/26 05:30:53;;;;;;;21.23;10.18;;;;;;;;;;5071486;28;20401;-51
2021/01/26 05:33:19;;;;;;;16.80;10.80;;;;;;;;;;5071276;28;20185;-50
2021/01/26 05:35:49;;;;;;;11.70;9.38;;;;;;;;;;5071427;28;20198;-51
2021/01/26 05:38:16;;;;;;;26.58;9.52;;;;;;;;;;5071569;28;20282;-50
2021/01/26 05:40:44;;;;;;;15.35;9.30;;;;;;;;;;5071448;28;20171;-52
2021/01/26 05:43:12;;;;;;;14.65;9.32;;;;;;;;;;5071659;28;20204;-51
2021/01/26 05:45:40;;;;;;;10.98;8.95;;;;;;;;;;5070803;28;20174;-51
2021/01/26 05:48:07;;;;;;;16.30;9.35;;;;;;;;;;5071289;28;20667;-52
2021/01/26 05:50:35;;;;;;;19.83;9.80;;;;;;;;;;5071192;28;20172;-53
2021/01/26 05:53:05;;;;;;;14.35;9.18;;;;;;;;;;5071418;28;20204;-50
2021/01/26 05:55:33;;;;;;;17.98;8.98;;;;;;;;;;5071063;28;20171;-51
2021/01/26 05:58:06;;;;;;;16.63;9.45;;;;;;;;;;5071027;28;20231;-50
2021/01/26 06:00:32;;;;;;;11.35;8.57;;;;;;;;;;5071080;28;20213;-51
2021/01/26 06:03:31;;;;;;;9.30;7.70;;;;;;;;;;5070957;28;20603;-52
2021/01/26 06:06:05;;;;;;;19.95;9.48;;;;;;;;;;5037308;28;20657;-52
2021/01/26 06:08:32;;;;;;;17.52;9.65;;;;;;;;;;5070972;28;20191;-51
2021/01/26 06:10:58;;;;;;;15.55;9.57;;;;;;;;;;5071035;28;20622;-51
2021/01/26 06:13:28;;;;;;;18.13;11.07;;;;;;;;;;5070774;28;20174;-51
2021/01/26 06:16:08;;;;;;;11.35;9.75;;;;;;;;;;5086640;28;20204;-52
2021/01/26 06:18:35;;;;;;;15.15;10.27;;;;;;;;;;5090995;28;20193;-50
2021/01/26 06:21:03;;;;;;;22.60;11.98;;;;;;;;;;5091143;28;20633;-50
2021/01/26 06:23:30;;;;;;;13.35;11.52;;;;;;;;;;5091083;28;20171;-50
2021/01/26 06:25:57;;;;;;;19.77;11.07;;;;;;;;;;5090727;28;20191;-51
2021/01/26 06:28:50;;;;;;;23.17;11.40;;;;;;;;;;5091062;28;20198;-53
2021/01/26 06:31:31;;;;;;;22.33;11.15;;;;;;;;;;5060212;28;20257;-51
2021/01/26 06:34:15;;;;;;;18.92;11.63;;;;;;;;;;5076555;28;20262;-51
2021/01/26 06:36:41;;;;;;;16.13;10.45;;;;;;;;;;5070497;28;20304;-51
2021/01/26 06:39:13;;;;;;;16.33;10.90;;;;;;;;;;5070433;28;20284;-50
2021/01/26 06:41:45;;;;;;;19.67;11.70;;;;;;;;;;5071005;28;20403;-51
2021/01/26 06:44:30;;;;;;;24.88;12.70;;;;;;;;;;5070049;28;20163;-55
2021/01/26 06:46:56;;;;;;;19.92;12.23;;;;;;;;;;5075913;28;20242;-50
2021/01/26 06:49:28;;;;;;;22.77;14.27;;;;;;;;;;5090547;28;20272;-51
2021/01/26 06:52:06;;;;;;;28.48;13.43;;;;;;;;;;5091009;28;20553;-51
2021/01/26 06:54:39;;;;;;;23.08;13.45;;;;;;;;;;5090622;28;20486;-51
2021/01/26 06:57:24;;;;;;;29.20;13.52;;;;;;;;;;5090431;28;20581;-51
2021/01/26 07:00:00;;;;;;;27.65;13.85;;;;;;;;;;5090488;28;20231;-50
2021/01/26 07:02:26;;;;;;;27.38;16.48;;;;;;;;;;5090774;28;20618;-51
2021/01/26 07:05:09;;;;;;;25.80;14.27;;;;;;;;;;5091089;28;20197;-52
2021/01/26 07:07:35;;;;;;;29.88;13.82;;;;;;;;;;5090411;28;20405;-52
2021/01/26 07:10:04;;;;;;;29.00;14.90;;;;;;;;;;5090680;28;20268;-55
2021/01/26 07:12:49;;;;;;;30.33;14.60;;;;;;;;;;5090589;28;20411;-51
2021/01/26 07:15:24;;;;;;;24.15;15.05;;;;;;;;;;5085863;28;20617;-51
2021/01/26 07:18:05;;;;;;;36.15;15.25;;;;;;;;;;5070212;28;20249;-52
2021/01/26 07:20:38;;;;;;;33.42;15.95;;;;;;;;;;5070983;28;20625;-51
2021/01/26 07:23:14;;;;;;;26.33;13.63;;;;;;;;;;5070390;28;20159;-51
2021/01/26 07:25:58;;;;;;;36.50;14.82;;;;;;;;;;5070219;28;20663;-51
2021/01/26 07:28:39;;;;;;;25.02;13.73;;;;;;;;;;5069975;28;20191;-51
2021/01/26 07:31:09;;;;;;;27.88;14.48;;;;;;;;;;5070460;28;20223;-51
2021/01/26 07:33:38;;;;;;;29.52;14.80;;;;;;;;;;5070215;28;20600;-51
2021/01/26 07:36:16;;;;;;;25.25;13.60;;;;;;;;;;5070006;28;20695;-51
2021/01/26 07:38:45;;;;;;;28.00;14.40;;;;;;;;;;5069858;28;20227;-52
2021/01/26 07:41:19;;;;;;;20.42;14.30;;;;;;;;;;5070134;28;20176;-51
2021/01/26 07:43:47;;;;;;;26.83;14.90;;;;;;;;;;5069918;28;20164;-51
2021/01/26 07:46:17;;;;;;;23.50;12.50;;;;;;;;;;5069872;28;20594;-50
2021/01/26 07:48:46;;;;;;;23.58;11.10;;;;;;;;;;5069866;28;20202;-51
2021/01/26 07:51:21;;;;;;;22.73;11.20;;;;;;;;;;5070047;28;20167;-51
2021/01/26 07:53:53;;;;;;;25.25;11.60;;;;;;;;;;5070126;28;20535;-51
2021/01/26 07:56:25;;;;;;;23.40;11.88;;;;;;;;;;5072781;28;20159;-51
2021/01/26 07:58:51;;;;;;;20.63;11.38;;;;;;;;;;5073185;28;20596;-50
2021/01/26 08:01:19;;;;;;;18.10;11.35;;;;;;;;;;5073572;28;20211;-52
2021/01/26 08:03:46;;;;;;;19.40;11.77;;;;;;;;;;5073287;28;20175;-52
2021/01/26 08:06:42;;;;;;;22.70;13.32;;;;;;;;;;5073188;28;20158;-51
2021/01/26 08:09:11;;;;;;;20.83;12.45;;;;;;;;;;5073158;28;20183;-50
2021/01/26 08:11:49;;;;;;;18.73;12.55;;;;;;;;;;5073282;28;20166;-50
2021/01/26 08:14:15;;;;;;;18.77;12.18;;;;;;;;;;5073327;28;20258;-53
2021/01/26 08:16:44;;;;;;;21.88;12.02;;;;;;;;;;5090557;28;20591;-53
2021/01/26 08:19:27;;;;;;;21.52;11.73;;;;;;;;;;5093316;28;20230;-51
2021/01/26 08:21:56;;;;;;;20.90;12.02;;;;;;;;;;5093339;28;20538;-50
2021/01/26 08:24:22;;;;;;;18.77;11.52;;;;;;;;;;5093299;28;20181;-50
2021/01/26 08:26:51;;;;;;;20.07;13.50;;;;;;;;;;5092782;28;20171;-51
2021/01/26 08:29:36;;;;;;;20.52;12.05;;;;;;;;;;5093173;28;20419;-51
2021/01/26 08:32:21;;;;;;;25.77;13.65;;;;;;;;;;5093116;28;20657;-51
2021/01/26 08:34:57;;;;;;;20.90;11.48;;;;;;;;;;5093149;28;20193;-51
2021/01/26 08:37:25;;;;;;;26.45;12.00;;;;;;;;;;5092667;28;20208;-52
2021/01/26 08:39:52;;;;;;;22.63;13.25;;;;;;;;;;5093174;28;20190;-50
2021/01/26 08:42:36;;;;;;;19.80;12.75;;;;;;;;;;5092789;28;20178;-51
2021/01/26 08:45:02;;;;;;;23.83;12.70;;;;;;;;;;5090960;28;20168;-51
2021/01/26 08:47:46;;;;;;;24.90;13.38;;;;;;;;;;5072140;28;20200;-51
2021/01/26 08:50:14;;;;;;;26.27;13.98;;;;;;;;;;5072166;28;20186;-50
2021/01/26 08:52:40;;;;;;;18.15;13.00;;;;;;;;;;5070132;28;20190;-51
2021/01/26 08:55:06;;;;;;;28.70;14.38;;;;;;;;;;5072002;28;20177;-50
2021/01/26 08:57:32;;;;;;;20.85;12.30;;;;;;;;;;5071395;28;20606;-51
2021/01/26 08:59:59;;;;;;;27.53;13.40;;;;;;;;;;5071816;28;20273;-50
2021/01/26 09:02:33;;;;;;;20.83;14.10;;;;;;;;;;5071572;28;20398;-51
2021/01/26 09:05:00;;;;;;;21.27;14.07;;;;;;;;;;5071538;28;20167;-51
2021/01/26 09:07:45;;;;;;;28.05;13.57;;;;;;;;;;5071491;28;20167;-51
2021/01/26 09:10:20;;;;;;;20.25;11.93;;;;;;;;;;5071589;28;20183;-50
2021/01/26 09:12:47;;;;;;;27.17;14.05;;;;;;;;;;5071333;28;20173;-53
2021/01/26 09:15:15;;;;;;;21.23;12.20;;;;;;;;;;5071465;28;20244;-52
2021/01/26 09:17:41;;;;;;;18.48;13.40;;;;;;;;;;5071515;28;20278;-51
2021/01/26 09:20:28;;;;;;;18.15;12.40;;;;;;;;;;5071356;28;20192;-50
2021/01/26 09:23:03;;;;;;;18.30;11.70;;;;;;;;;;5071398;28;20645;-53
2021/01/26 09:25:34;;;;;;;23.83;13.10;;;;;;;;;;5071258;28;20171;-52
2021/01/26 09:28:06;;;;;;;26.17;14.10;;;;;;;;;;5071427;28;20180;-51
2021/01/26 09:30:34;;;;;;;20.23;12.05;;;;;;;;;;5071283;28;20168;-51
2021/01/26 09:33:02;;;;;;;18.17;11.85;;;;;;;;;;5071156;28;20202;-50
2021/01/26 09:35:30;;;;;;;18.48;11.48;;;;;;;;;;5071066;28;20172;-51
2021/01/26 09:38:15;;;;;;;22.92;11.02;;;;;;;;;;5071788;28;20667;-50
2021/01/26 09:40:46;;;;;;;15.25;11.02;;;;;;;;;;5071478;28;20250;-51
2021/01/26 09:43:22;;;;;;;20.58;11.45;;;;;;;;;;5071620;28;20215;-51
2021/01/26 09:45:56;;;;;;;16.73;11.65;;;;;;;;;;5070892;28;20178;-50
2021/01/26 09:48:34;;;;;;;18.75;12.43;;;;;;;;;;5071359;28;20278;-50
2021/01/26 09:51:11;;;;;;;16.65;12.63;;;;;;;;;;5071308;28;20167;-50
2021/01/26 09:53:38;;;;;;;20.90;13.18;;;;;;;;;;5071303;28;20175;-51
2021/01/26 09:56:04;;;;;;;20.27;13.70;;;;;;;;;;5070840;28;20171;-52
2021/01/26 09:58:31;;;;;;;18.85;13.75;;;;;;;;;;5071126;28;20213;-51
2021/01/26 10:00:57;;;;;;;24.83;15.27;;;;;;;;;;5071295;28;20315;-53
2021/01/26 10:03:24;;;;;;;18.85;12.13;;;;;;;;;;5071279;28;20163;-51
2021/01/26 10:05:53;;;;;;;15.13;11.63;;;;;;;;;;5071043;28;20194;-51
2021/01/26 10:08:22;;;;;;;21.17;13.48;;;;;;;;;;5070906;28;20559;-51
2021/01/26 10:10:48;;;;;;;25.42;13.82;;;;;;;;;;5071003;28;20180;-51
2021/01/26 10:13:24;;;;;;;26.48;12.68;;;;;;;;;;5070886;28;20665;-52
2021/01/26 10:15:50;;;;;;;23.45;12.55;;;;;;;;;;5070533;28;20175;-51
2021/01/26 10:18:17;;;;;;;20.93;12.20;;;;;;;;;;5070390;28;20210;-51
2021/01/26 10:20:47;;;;;;;24.13;12.43;;;;;;;;;;5071025;28;20804;-51
2021/01/26 10:23:22;;;;;;;19.90;11.43;;;;;;;;;;5070814;28;20164;-53
2021/01/26 10:25:48;;;;;;;20.90;13.02;;;;;;;;;;5070631;28;20186;-53
2021/01/26 10:28:15;;;;;;;20.85;12.63;;;;;;;;;;5070594;28;20644;-52
2021/01/26 10:30:43;;;;;;;17.02;12.63;;;;;;;;;;5070699;28;20178;-51
2021/01/26 10:33:10;;;;;;;22.02;13.70;;;;;;;;;;5070691;28;20549;-51
2021/01/26 10:35:39;;;;;;;29.98;13.63;;;;;;;;;;5070431;28;20251;-51
2021/01/26 10:38:23;;;;;;;24.05;14.52;;;;;;;;;;5070362;28;20190;-51
2021/01/26 10:41:03;;;;;;;23.27;14.00;;;;;;;;;;5070640;28;20591;-53
2021/01/26 10:43:29;;;;;;;27.42;13.50;;;;;;;;;;5070621;28;20243;-51
2021/01/26 10:45:55;;;;;;;20.07;13.07;;;;;;;;;;5070145;28;20302;-50
2021/01/26 10:48:39;;;;;;;18.50;11.20;;;;;;;;;;5070442;28;20505;-51
2021/01/26 10:51:23;;;;;;;9.98;8.23;;;;;;;;;;5070602;28;20186;-51
2021/01/26 10:53:49;;;;;;;10.32;7.68;;;;;;;;;;5070429;28;20289;-50
2021/01/26 10:56:16;;;;;;;6.97;6.28;;;;;;;;;;5070282;28;20199;-51
2021/01/26 10:58:42;;;;;;;6.93;6.13;;;;;;;;;;5078295;28;20257;-51
2021/01/26 11:01:08;;;;;;;7.68;5.90;;;;;;;;;;5090687;28;20177;-51
2021/01/26 11:03:35;;;;;;;7.40;5.28;;;;;;;;;;5090844;28;20182;-52
2021/01/26 11:06:01;;;;;;;7.72;4.55;;;;;;;;;;5081374;28;20218;-53
2021/01/26 11:08:27;;;;;;;6.80;5.65;;;;;;;;;;5079855;28;20202;-53
2021/01/26 11:10:53;;;;;;;7.30;5.20;;;;;;;;;;5090298;28;20177;-52
2021/01/26 11:13:19;;;;;;;5.65;5.05;;;;;;;;;;5090708;28;20352;-52
2021/01/26 11:15:45;;;;;;;5.93;4.55;;;;;;;;;;5090272;28;20173;-52
2021/01/26 11:18:11;;;;;;;6.95;4.10;;;;;;;;;;5072907;28;20209;-52
2021/01/26 11:20:37;;;;;;;5.68;3.90;;;;;;;;;;5082892;28;20657;-50
2021/01/26 11:23:04;;;;;;;6.25;4.60;;;;;;;;;;5095919;28;20157;-53
2021/01/26 11:25:31;;;;;;;6.85;3.70;;;;;;;;;;5079670;28;20641;-51
2021/01/26 11:27:57;;;;;;;7.32;3.97;;;;;;;;;;5095325;28;20273;-52
2021/01/26 11:30:24;;;;;;;3.80;3.50;;;;;;;;;;5093064;28;20260;-52
2021/01/26 11:32:50;;;;;;;8.40;4.78;;;;;;;;;;5094235;28;20245;-53
2021/01/26 11:35:17;;;;;;;4.93;3.50;;;;;;;;;;5094055;28;20171;-51
2021/01/26 11:37:43;;;;;;;6.85;3.80;;;;;;;;;;5094113;28;20453;-49
2021/01/26 11:40:09;;;;;;;4.37;3.97;;;;;;;;;;5094196;28;20292;-50
2021/01/26 11:42:35;;;;;;;6.50;3.83;;;;;;;;;;5092941;28;20412;-49
2021/01/26 11:45:02;;;;;;;5.28;4.13;;;;;;;;;;5093806;28;20253;-53
2021/01/26 11:47:28;;;;;;;6.55;5.10;;;;;;;;;;5085949;28;20208;-52
2021/01/26 11:49:54;;;;;;;10.53;6.30;;;;;;;;;;5073585;28;20198;-49
2021/01/26 11:52:20;;;;;;;8.95;5.28;;;;;;;;;;5073567;28;20805;-50
2021/01/26 11:54:47;;;;;;;8.50;6.70;;;;;;;;;;5073681;28;20213;-50
2021/01/26 11:57:13;;;;;;;15.48;7.25;;;;;;;;;;5073038;28;20936;-50
2021/01/26 11:59:39;;;;;;;12.93;7.32;;;;;;;;;;5074285;28;20278;-51
2021/01/26 12:02:05;;;;;;;9.53;8.23;;;;;;;;;;5073501;28;20248;-51
2021/01/26 12:04:31;;;;;;;12.50;7.80;;;;;;;;;;5073547;28;20452;-53
2021/01/26 12:06:57;;;;;;;13.07;8.70;;;;;;;;;;5073029;28;20832;-53
2021/01/26 12:09:23;;;;;;;13.10;9.20;;;;;;;;;;5073379;28;20493;-50
2021/01/26 12:11:49;;;;;;;13.67;8.60;;;;;;;;;;5073236;28;20411;-49
2021/01/26 12:14:15;;;;;;;14.40;8.93;;;;;;;;;;5073333;28;20806;-50
2021/01/26 12:16:41;;;;;;;10.57;8.77;;;;;;;;;;5073043;28;20415;-51
2021/01/26 12:19:07;;;;;;;12.13;9.73;;;;;;;;;;5073121;28;20555;-50
2021/01/26 12:21:32;;;;;;;10.87;8.77;;;;;;;;;;5073166;28;20493;-51
2021/01/26 12:23:58;;;;;;;16.20;10.70;;;;;;;;;;5072948;28;20768;-53
2021/01/26 12:26:24;;;;;;;11.70;9.03;;;;;;;;;;5071590;28;20462;-53
2021/01/26 12:28:51;;;;;;;12.10;9.10;;;;;;;;;;5071956;28;20435;-51
2021/01/26 12:31:17;;;;;;;13.50;8.95;;;;;;;;;;5078088;28;20407;-50
2021/01/26 12:33:43;;;;;;;12.60;9.80;;;;;;;;;;5092389;28;20663;-50
2021/01/26 12:36:09;;;;;;;13.47;9.40;;;;;;;;;;5092327;28;20399;-50
2021/01/26 12:38:35;;;;;;;14.48;9.15;;;;;;;;;;5092325;28;20461;-50
2021/01/26 12:41:02;;;;;;;14.23;9.70;;;;;;;;;;5091959;28;20535;-50
2021/01/26 12:43:28;;;;;;;13.40;9.40;;;;;;;;;;5092735;28;20398;-50
2021/01/26 12:45:54;;;;;;;10.85;8.88;;;;;;;;;;5091906;28;20165;-50
2021/01/26 12:48:19;;;;;;;17.95;9.15;;;;;;;;;;5075009;28;20190;-56
2021/01/26 12:50:46;;;;;;;13.20;9.07;;;;;;;;;;5071953;28;20276;-50
2021/01/26 12:53:13;;;;;;;9.52;8.00;;;;;;;;;;5072068;28;20475;-51
2021/01/26 12:55:39;;;;;;;12.80;9.27;;;;;;;;;;5071323;28;20178;-52
2021/01/26 12:58:05;;;;;;;11.32;9.00;;;;;;;;;;5071753;28;20201;-54
2021/01/26 13:00:31;;;;;;;7.93;6.80;;;;;;;;;;5071693;28;20166;-54
2021/01/26 13:02:58;;;;;;;7.47;6.72;;;;;;;;;;5071929;28;20570;-53
2021/01/26 13:05:25;;;;;;;8.73;7.82;;;;;;;;;;5071674;28;20249;-50
2021/01/26 13:07:51;;;;;;;9.55;8.57;;;;;;;;;;5071894;28;20222;-50
2021/01/26 13:10:17;;;;;;;10.15;8.88;;;;;;;;;;5071658;28;20665;-50
2021/01/26 13:12:44;;;;;;;10.05;8.82;;;;;;;;;;5070182;28;20185;-50
2021/01/26 13:15:11;;;;;;;13.93;9.20;;;;;;;;;;5071764;28;20182;-52
2021/01/26 13:17:37;;;;;;;13.43;10.73;;;;;;;;;;5072033;28;20247;-50
2021/01/26 13:20:04;;;;;;;13.80;11.83;;;;;;;;;;5071893;28;20673;-50
2021/01/26 13:22:31;;;;;;;15.48;11.60;;;;;;;;;;5072029;28;20480;-53
2021/01/26 13:24:57;;;;;;;13.05;11.55;;;;;;;;;;5072568;28;20637;-50
2021/01/26 13:27:23;;;;;;;15.27;10.27;;;;;;;;;;5070589;28;20660;-50
2021/01/26 13:29:49;;;;;;;11.38;9.60;;;;;;;;;;5070509;28;20189;-50
2021/01/26 13:32:15;;;;;;;9.40;8.37;;;;;;;;;;5070256;28;20657;-50
2021/01/26 13:34:43;;;;;;;7.10;6.50;;;;;;;;;;5071441;28;20812;-51
2021/01/26 13:37:09;;;;;;;11.27;6.30;;;;;;;;;;5070912;28;20401;-50
2021/01/26 13:39:35;;;;;;;11.93;5.83;;;;;;;;;;5078694;28;20865;-50
2021/01/26 13:42:01;;;;;;;7.90;5.83;;;;;;;;;;5091475;28;20401;-50
2021/01/26 13:44:28;;;;;;;6.60;6.00;;;;;;;;;;5090461;28;20904;-50
2021/01/26 13:46:54;;;;;;;9.33;5.60;;;;;;;;;;5071420;28;20501;-50
2021/01/26 13:49:21;;;;;;;7.33;5.97;;;;;;;;;;5086757;28;20509;-50
2021/01/26 13:51:47;;;;;;;7.63;6.57;;;;;;;;;;5091295;28;20886;-51
2021/01/26 13:54:13;;;;;;;6.73;6.13;;;;;;;;;;5090946;28;20410;-53
2021/01/26 13:56:39;;;;;;;11.43;5.93;;;;;;;;;;5091349;28;20407;-52
2021/01/26 13:59:05;;;;;;;7.10;5.67;;;;;;;;;;5091342;28;20549;-53
2021/01/26 14:01:31;;;;;;;7.07;6.37;;;;;;;;;;5091518;28;20395;-53
2021/01/26 14:03:56;;;;;;;7.93;6.90;;;;;;;;;;5091245;28;20776;-50
2021/01/26 14:06:23;;;;;;;10.90;7.13;;;;;;;;;;5091069;28;20477;-50
2021/01/26 14:08:50;;;;;;;7.33;5.80;;;;;;;;;;5091141;28;20452;-53
2021/01/26 14:11:16;;;;;;;7.43;6.60;;;;;;;;;;5091411;28;21151;-50
2021/01/26 14:13:42;;;;;;;7.13;4.50;;;;;;;;;;5091138;28;20480;-50
2021/01/26 14:16:10;;;;;;;8.07;4.67;;;;;;;;;;5080348;28;20565;-50
2021/01/26 14:18:36;;;;;;;6.87;4.60;;;;;;;;;;5070646;28;20496;-50
2021/01/26 14:21:02;;;;;;;4.27;3.97;;;;;;;;;;5070836;28;20425;-50
2021/01/26 14:23:28;;;;;;;4.70;4.30;;;;;;;;;;5070968;28;20405;-50
2021/01/26 14:25:54;;;;;;;6.07;4.80;;;;;;;;;;5070650;28;20882;-50
2021/01/26 14:28:20;;;;;;;7.60;5.40;;;;;;;;;;5070711;28;20409;-50
2021/01/26 14:30:46;;;;;;;4.53;4.17;;;;;;;;;;5070626;28;20440;-50
2021/01/26 14:33:13;;;;;;;6.70;5.43;;;;;;;;;;5070723;28;20401;-50
2021/01/26 14:35:40;;;;;;;7.28;5.47;;;;;;;;;;5070171;28;20411;-53
2021/01/26 14:38:07;;;;;;;8.20;5.40;;;;;;;;;;5070436;28;20198;-50